Time;durP1;ratioP1;P1;durP2;ratioP2;P2;SDS_P1;SDS_P2;PMS_P1;PMS_P2;Temp;Humidity;BMP_temperature;BMP_pressure;BME280_temperature;BME280_humidity;BME280_pressure;Samples;Min_cycle;Max_cycle;Signal;HPM_P1;HPM_P2
2023/05/21 00:01:39;;;;;;;13.07;11.18;;;;;;;;;;5055938;28;20422;-60
2023/05/21 00:04:08;;;;;;;15.15;11.55;;;;;;;;;;5060153;28;20051;-60
2023/05/21 00:06:35;;;;;;;13.73;10.93;;;;;;;;;;5063973;28;20049;-60
2023/05/21 00:09:02;;;;;;;12.88;10.45;;;;;;;;;;5074225;28;20048;-60
2023/05/21 00:11:29;;;;;;;12.57;11.02;;;;;;;;;;5069062;28;20048;-60
2023/05/21 00:13:56;;;;;;;11.60;9.80;;;;;;;;;;5072897;28;20060;-60
2023/05/21 00:16:23;;;;;;;13.60;10.90;;;;;;;;;;5061914;28;20057;-60
2023/05/21 00:18:50;;;;;;;11.15;9.85;;;;;;;;;;5053595;28;20052;-61
2023/05/21 00:21:21;;;;;;;12.20;10.93;;;;;;;;;;5057331;28;20055;-60
2023/05/21 00:23:48;;;;;;;15.52;11.38;;;;;;;;;;5054005;28;20406;-61
2023/05/21 00:26:15;;;;;;;12.63;11.13;;;;;;;;;;5057822;28;20049;-60
2023/05/21 00:28:42;;;;;;;17.92;12.50;;;;;;;;;;5074005;28;20060;-60
2023/05/21 00:31:09;;;;;;;17.27;13.35;;;;;;;;;;5070307;28;20056;-60
2023/05/21 00:33:36;;;;;;;14.45;11.63;;;;;;;;;;5071736;28;20056;-61
2023/05/21 00:36:03;;;;;;;13.98;11.02;;;;;;;;;;5071747;28;20055;-60
2023/05/21 00:38:31;;;;;;;13.27;11.07;;;;;;;;;;5058057;28;20057;-61
2023/05/21 00:41:00;;;;;;;12.73;10.93;;;;;;;;;;5052939;28;20064;-61
2023/05/21 00:43:27;;;;;;;13.90;11.27;;;;;;;;;;5071281;28;20053;-60
2023/05/21 00:45:55;;;;;;;15.43;11.93;;;;;;;;;;5065080;28;20052;-60
2023/05/21 00:48:22;;;;;;;12.30;10.65;;;;;;;;;;5053733;28;20053;-60
2023/05/21 00:50:49;;;;;;;12.23;10.75;;;;;;;;;;5065162;28;20056;-60
2023/05/21 00:53:18;;;;;;;13.18;11.40;;;;;;;;;;5058582;28;20060;-60
2023/05/21 00:55:47;;;;;;;13.57;11.38;;;;;;;;;;5053504;28;20052;-60
2023/05/21 00:58:14;;;;;;;14.77;11.30;;;;;;;;;;5066710;28;20061;-60
2023/05/21 01:00:40;;;;;;;14.98;12.05;;;;;;;;;;5072287;28;20835;-60
2023/05/21 01:03:07;;;;;;;13.93;11.63;;;;;;;;;;5062124;28;20053;-61
2023/05/21 01:05:35;;;;;;;16.17;12.60;;;;;;;;;;5055448;28;20044;-61
2023/05/21 01:08:02;;;;;;;15.05;12.27;;;;;;;;;;5072112;28;20048;-61
2023/05/21 01:10:29;;;;;;;14.43;11.75;;;;;;;;;;5069197;28;20052;-61
2023/05/21 01:12:58;;;;;;;11.90;10.10;;;;;;;;;;5065695;28;20060;-61
2023/05/21 01:15:26;;;;;;;12.00;10.63;;;;;;;;;;5073156;28;20409;-60
2023/05/21 01:17:54;;;;;;;15.00;12.02;;;;;;;;;;5066571;28;20059;-61
2023/05/21 01:20:23;;;;;;;13.10;11.57;;;;;;;;;;5073033;28;20059;-60
2023/05/21 01:22:53;;;;;;;15.93;11.77;;;;;;;;;;5070170;28;20063;-60
2023/05/21 01:25:19;;;;;;;13.52;10.95;;;;;;;;;;5070679;28;20056;-60
2023/05/21 01:27:46;;;;;;;13.55;12.15;;;;;;;;;;5067847;28;20052;-60
2023/05/21 01:30:13;;;;;;;14.70;12.32;;;;;;;;;;5072936;28;20060;-60
2023/05/21 01:32:44;;;;;;;14.10;12.18;;;;;;;;;;5070585;28;20485;-60
2023/05/21 01:35:13;;;;;;;13.88;11.60;;;;;;;;;;5053840;28;20049;-61
2023/05/21 01:37:45;;;;;;;15.70;12.20;;;;;;;;;;5055774;28;20056;-60
2023/05/21 01:40:16;;;;;;;16.33;12.80;;;;;;;;;;5072360;28;20053;-60
2023/05/21 01:42:44;;;;;;;14.38;11.15;;;;;;;;;;5065791;28;20056;-61
2023/05/21 01:45:11;;;;;;;14.15;11.93;;;;;;;;;;5052668;28;20053;-60
2023/05/21 01:47:39;;;;;;;12.48;11.18;;;;;;;;;;5052032;28;20053;-60
2023/05/21 01:50:06;;;;;;;13.65;11.82;;;;;;;;;;5067067;28;20075;-60
2023/05/21 01:52:33;;;;;;;15.60;13.13;;;;;;;;;;5072414;28;20071;-60
2023/05/21 01:55:00;;;;;;;14.20;12.10;;;;;;;;;;5071347;28;20504;-60
2023/05/21 01:57:28;;;;;;;15.23;13.18;;;;;;;;;;5053854;28;20060;-61
2023/05/21 01:59:56;;;;;;;14.40;11.82;;;;;;;;;;5052786;28;20053;-60
2023/05/21 02:02:23;;;;;;;15.00;11.25;;;;;;;;;;5051408;28;20080;-60
2023/05/21 02:04:50;;;;;;;14.65;11.68;;;;;;;;;;5059365;28;20053;-60
2023/05/21 02:07:18;;;;;;;13.40;10.05;;;;;;;;;;5052249;28;20056;-60
2023/05/21 02:09:45;;;;;;;12.55;10.30;;;;;;;;;;5051963;28;20064;-60
2023/05/21 02:12:12;;;;;;;13.90;10.45;;;;;;;;;;5061282;28;20049;-60
2023/05/21 02:14:40;;;;;;;12.55;9.88;;;;;;;;;;5072040;28;20049;-60
2023/05/21 02:17:07;;;;;;;11.85;10.00;;;;;;;;;;5070981;28;20048;-59
2023/05/21 02:19:34;;;;;;;11.38;9.85;;;;;;;;;;5069652;28;20064;-59
2023/05/21 02:22:01;;;;;;;12.65;10.68;;;;;;;;;;5058896;28;20115;-59
2023/05/21 02:24:28;;;;;;;11.82;10.40;;;;;;;;;;5072082;28;20048;-60
2023/05/21 02:26:55;;;;;;;12.45;10.68;;;;;;;;;;5054846;28;20049;-60
2023/05/21 02:29:21;;;;;;;12.20;10.88;;;;;;;;;;5051994;28;20060;-60
2023/05/21 02:31:50;;;;;;;11.32;10.13;;;;;;;;;;5052723;28;20060;-62
2023/05/21 02:34:19;;;;;;;13.13;10.02;;;;;;;;;;5066369;28;20056;-60
2023/05/21 02:36:47;;;;;;;12.83;10.63;;;;;;;;;;5055885;28;20053;-60
2023/05/21 02:39:14;;;;;;;14.32;10.82;;;;;;;;;;5055143;28;20049;-60
2023/05/21 02:41:40;;;;;;;11.07;9.85;;;;;;;;;;5064820;28;20055;-60
2023/05/21 02:44:07;;;;;;;12.50;10.55;;;;;;;;;;5076075;28;20048;-60
2023/05/21 02:46:34;;;;;;;11.48;9.73;;;;;;;;;;5061479;28;20049;-60
2023/05/21 02:49:02;;;;;;;13.02;10.25;;;;;;;;;;5055975;28;20481;-60
2023/05/21 02:51:29;;;;;;;14.00;10.13;;;;;;;;;;5058998;28;20060;-57
2023/05/21 02:53:56;;;;;;;10.93;9.65;;;;;;;;;;5064570;28;20048;-57
2023/05/21 02:56:23;;;;;;;11.00;9.90;;;;;;;;;;5074701;28;20045;-57
2023/05/21 02:58:50;;;;;;;12.40;9.65;;;;;;;;;;5075820;28;20714;-57
2023/05/21 03:01:17;;;;;;;12.60;9.60;;;;;;;;;;5072142;28;20044;-57
2023/05/21 03:03:44;;;;;;;11.02;9.77;;;;;;;;;;5075432;28;20052;-57
2023/05/21 03:06:13;;;;;;;10.98;9.68;;;;;;;;;;5066738;28;20052;-57
2023/05/21 03:08:39;;;;;;;12.70;9.20;;;;;;;;;;5055700;28;20056;-57
2023/05/21 03:11:06;;;;;;;12.50;9.48;;;;;;;;;;5059619;28;20064;-57
2023/05/21 03:13:33;;;;;;;11.73;9.43;;;;;;;;;;5074966;28;20413;-57
2023/05/21 03:16:00;;;;;;;10.77;9.45;;;;;;;;;;5065088;28;20055;-57
2023/05/21 03:18:27;;;;;;;11.52;10.05;;;;;;;;;;5075153;28;20056;-57
2023/05/21 03:20:54;;;;;;;13.30;10.05;;;;;;;;;;5066367;28;20525;-57
2023/05/21 03:23:22;;;;;;;11.07;9.88;;;;;;;;;;5065270;28;20053;-57
2023/05/21 03:25:49;;;;;;;14.50;11.02;;;;;;;;;;5061558;28;20071;-57
2023/05/21 03:28:17;;;;;;;10.90;9.40;;;;;;;;;;5074687;28;20056;-57
2023/05/21 03:30:45;;;;;;;11.02;9.82;;;;;;;;;;5067417;28;20490;-57
2023/05/21 03:33:12;;;;;;;11.13;9.48;;;;;;;;;;5055188;28;20418;-57
2023/05/21 03:35:39;;;;;;;11.45;10.25;;;;;;;;;;5054652;28;20045;-57
2023/05/21 03:38:06;;;;;;;11.75;9.90;;;;;;;;;;5058069;28;20060;-57
2023/05/21 03:40:34;;;;;;;10.70;9.60;;;;;;;;;;5071775;28;20067;-57
2023/05/21 03:43:01;;;;;;;11.02;9.60;;;;;;;;;;5070422;28;20052;-57
2023/05/21 03:45:28;;;;;;;12.00;9.63;;;;;;;;;;5054710;28;20049;-57
2023/05/21 03:47:55;;;;;;;12.35;10.20;;;;;;;;;;5053265;28;20053;-57
2023/05/21 03:50:21;;;;;;;11.13;9.95;;;;;;;;;;5055731;28;20053;-57
2023/05/21 03:52:48;;;;;;;12.25;8.60;;;;;;;;;;5064239;28;20059;-57
2023/05/21 03:55:15;;;;;;;11.63;9.88;;;;;;;;;;5072202;28;20425;-57
2023/05/21 03:57:43;;;;;;;10.65;9.30;;;;;;;;;;5073348;28;20059;-58
2023/05/21 04:00:10;;;;;;;12.05;10.18;;;;;;;;;;5072140;28;20053;-58
2023/05/21 04:02:37;;;;;;;12.93;10.35;;;;;;;;;;5072617;28;20060;-58
2023/05/21 04:05:04;;;;;;;11.95;10.75;;;;;;;;;;5072429;28;20053;-58
2023/05/21 04:07:31;;;;;;;11.73;9.68;;;;;;;;;;5056739;28;20057;-58
2023/05/21 04:09:57;;;;;;;11.50;9.73;;;;;;;;;;5069562;28;20489;-57
2023/05/21 04:12:24;;;;;;;11.10;9.50;;;;;;;;;;5072925;28;20048;-58
2023/05/21 04:14:52;;;;;;;13.45;11.23;;;;;;;;;;5073762;28;20422;-58
2023/05/21 04:17:19;;;;;;;11.43;10.20;;;;;;;;;;5066682;28;20063;-58
2023/05/21 04:19:46;;;;;;;11.90;10.60;;;;;;;;;;5054493;28;20056;-58
2023/05/21 04:22:13;;;;;;;11.95;9.95;;;;;;;;;;5072489;28;20055;-57
2023/05/21 04:24:40;;;;;;;12.00;10.02;;;;;;;;;;5060015;28;20049;-58
2023/05/21 04:27:08;;;;;;;11.15;8.88;;;;;;;;;;5053464;28;20040;-57
2023/05/21 04:29:36;;;;;;;10.27;8.52;;;;;;;;;;5053475;28;20049;-58
2023/05/21 04:32:05;;;;;;;10.43;8.85;;;;;;;;;;5052866;28;20064;-58
2023/05/21 04:34:32;;;;;;;10.33;9.23;;;;;;;;;;5071388;28;20433;-58
2023/05/21 04:36:59;;;;;;;12.07;8.52;;;;;;;;;;5072195;28;20055;-58
2023/05/21 04:39:27;;;;;;;10.05;8.98;;;;;;;;;;5070306;28;20057;-58
2023/05/21 04:41:55;;;;;;;9.82;8.48;;;;;;;;;;5073584;28;20500;-58
2023/05/21 04:44:22;;;;;;;11.02;8.98;;;;;;;;;;5054954;28;20498;-58
2023/05/21 04:46:49;;;;;;;9.68;8.60;;;;;;;;;;5071544;28;20444;-58
2023/05/21 04:49:17;;;;;;;10.35;9.25;;;;;;;;;;5053199;28;20056;-58
2023/05/21 04:51:44;;;;;;;12.48;9.65;;;;;;;;;;5053037;28;20045;-58
2023/05/21 04:54:11;;;;;;;10.15;8.90;;;;;;;;;;5060873;28;20045;-58
2023/05/21 04:56:37;;;;;;;10.27;9.18;;;;;;;;;;5055506;28;20056;-57
2023/05/21 04:59:05;;;;;;;10.23;9.23;;;;;;;;;;5052972;28;20056;-58
2023/05/21 05:01:33;;;;;;;10.68;9.43;;;;;;;;;;5053095;28;20055;-58
2023/05/21 05:04:00;;;;;;;10.45;8.32;;;;;;;;;;5052338;28;20064;-57
2023/05/21 05:06:29;;;;;;;9.77;8.63;;;;;;;;;;5053481;28;20061;-58
2023/05/21 05:08:55;;;;;;;11.43;9.35;;;;;;;;;;5064521;28;20052;-58
2023/05/21 05:11:22;;;;;;;9.05;8.10;;;;;;;;;;5067163;28;20138;-58
2023/05/21 05:13:49;;;;;;;11.23;8.82;;;;;;;;;;5059943;28;20057;-57
2023/05/21 05:16:18;;;;;;;11.07;9.10;;;;;;;;;;5052919;28;20045;-57
2023/05/21 05:18:44;;;;;;;11.00;9.07;;;;;;;;;;5052274;28;20057;-58
2023/05/21 05:21:11;;;;;;;10.45;8.80;;;;;;;;;;5052297;28;20510;-58
2023/05/21 05:23:40;;;;;;;11.20;8.55;;;;;;;;;;5067515;28;20056;-58
2023/05/21 05:26:06;;;;;;;10.95;8.85;;;;;;;;;;5054196;28;20055;-58
2023/05/21 05:28:33;;;;;;;10.93;9.43;;;;;;;;;;5052813;28;20065;-58
2023/05/21 05:31:00;;;;;;;9.60;8.63;;;;;;;;;;5051913;28;20053;-58
2023/05/21 05:33:27;;;;;;;10.82;9.70;;;;;;;;;;5052391;28;20057;-58
2023/05/21 05:35:54;;;;;;;9.82;8.82;;;;;;;;;;5052722;28;20474;-58
2023/05/21 05:38:20;;;;;;;10.55;9.40;;;;;;;;;;5057740;28;20493;-58
2023/05/21 05:40:49;;;;;;;9.57;8.57;;;;;;;;;;5064799;28;20441;-58
2023/05/21 05:43:15;;;;;;;10.45;9.35;;;;;;;;;;5066824;28;20409;-58
2023/05/21 05:45:42;;;;;;;9.98;8.98;;;;;;;;;;5071419;28;20579;-58
2023/05/21 05:48:09;;;;;;;10.32;8.85;;;;;;;;;;5062099;28;20123;-57
2023/05/21 05:50:36;;;;;;;10.57;9.32;;;;;;;;;;5071429;28;20048;-58
2023/05/21 05:53:03;;;;;;;10.20;9.13;;;;;;;;;;5053069;28;20398;-58
2023/05/21 05:55:30;;;;;;;10.77;8.77;;;;;;;;;;5067186;28;20052;-58
2023/05/21 05:57:58;;;;;;;9.48;8.48;;;;;;;;;;5055004;28;20068;-58
2023/05/21 06:00:25;;;;;;;9.90;8.82;;;;;;;;;;5052131;28;20414;-58
2023/05/21 06:02:51;;;;;;;9.05;8.07;;;;;;;;;;5062155;28;20414;-62
2023/05/21 06:05:18;;;;;;;9.98;8.15;;;;;;;;;;5072201;28;20053;-58
2023/05/21 06:07:45;;;;;;;11.07;9.88;;;;;;;;;;5070902;28;20067;-58
2023/05/21 06:10:12;;;;;;;9.30;8.40;;;;;;;;;;5072438;28;20391;-58
2023/05/21 06:12:39;;;;;;;9.95;8.95;;;;;;;;;;5062830;28;20051;-58
2023/05/21 06:15:08;;;;;;;9.88;8.50;;;;;;;;;;5058713;28;20053;-58
2023/05/21 06:17:35;;;;;;;9.38;8.40;;;;;;;;;;5059448;28;20051;-58
2023/05/21 06:20:02;;;;;;;10.18;8.48;;;;;;;;;;5075733;28;20048;-58
2023/05/21 06:22:28;;;;;;;11.73;8.82;;;;;;;;;;5074742;28;20056;-58
2023/05/21 06:24:55;;;;;;;12.23;8.98;;;;;;;;;;5069309;28;20060;-58
2023/05/21 06:27:22;;;;;;;9.45;8.45;;;;;;;;;;5057064;28;20041;-58
2023/05/21 06:29:49;;;;;;;9.50;8.50;;;;;;;;;;5075515;28;20493;-57
2023/05/21 06:32:17;;;;;;;8.77;7.88;;;;;;;;;;5075558;28;20048;-57
2023/05/21 06:34:44;;;;;;;10.85;8.93;;;;;;;;;;5065209;28;20053;-57
2023/05/21 06:37:11;;;;;;;9.73;8.73;;;;;;;;;;5075873;28;20044;-57
2023/05/21 06:39:37;;;;;;;10.50;9.27;;;;;;;;;;5056766;28;20410;-57
2023/05/21 06:42:04;;;;;;;11.15;8.05;;;;;;;;;;5066371;28;20059;-57
2023/05/21 06:44:31;;;;;;;9.30;8.40;;;;;;;;;;5060003;28;20487;-57
2023/05/21 06:46:58;;;;;;;9.32;8.23;;;;;;;;;;5055551;28;20056;-57
2023/05/21 06:49:26;;;;;;;9.25;8.27;;;;;;;;;;5055391;28;20063;-58
2023/05/21 06:51:53;;;;;;;8.98;8.05;;;;;;;;;;5055863;28;20375;-57
2023/05/21 06:54:20;;;;;;;9.88;8.25;;;;;;;;;;5055629;28;20056;-58
2023/05/21 06:56:46;;;;;;;9.55;8.55;;;;;;;;;;5071236;28;20053;-59
2023/05/21 06:59:13;;;;;;;10.30;8.30;;;;;;;;;;5066243;28;20060;-58
2023/05/21 07:01:42;;;;;;;10.63;8.80;;;;;;;;;;5054054;28;20052;-58
2023/05/21 07:04:09;;;;;;;8.75;7.95;;;;;;;;;;5065832;28;20315;-58
2023/05/21 07:06:37;;;;;;;9.43;8.48;;;;;;;;;;5060552;28;20045;-58
2023/05/21 07:09:04;;;;;;;9.07;8.05;;;;;;;;;;5054962;28;20053;-59
2023/05/21 07:11:31;;;;;;;9.10;8.20;;;;;;;;;;5061316;28;20057;-57
2023/05/21 07:14:00;;;;;;;9.75;8.82;;;;;;;;;;5071585;28;20059;-57
2023/05/21 07:16:27;;;;;;;9.45;8.52;;;;;;;;;;5074848;28;20048;-57
2023/05/21 07:19:00;;;;;;;9.45;7.60;;;;;;;;;;5075249;28;20056;-57
2023/05/21 07:21:27;;;;;;;10.30;8.45;;;;;;;;;;5064843;28;20048;-57
2023/05/21 07:23:55;;;;;;;9.38;8.48;;;;;;;;;;5060643;28;20482;-58
2023/05/21 07:26:22;;;;;;;8.95;8.00;;;;;;;;;;5069678;28;20064;-57
2023/05/21 07:28:49;;;;;;;9.90;8.63;;;;;;;;;;5058665;28;20106;-58
2023/05/21 07:31:16;;;;;;;9.27;8.38;;;;;;;;;;5056999;28;20482;-58
2023/05/21 07:33:42;;;;;;;9.30;8.40;;;;;;;;;;5054445;28;20127;-58
2023/05/21 07:36:11;;;;;;;9.43;8.48;;;;;;;;;;5072927;28;20063;-58
2023/05/21 07:38:38;;;;;;;9.25;8.43;;;;;;;;;;5063242;28;20044;-58
2023/05/21 07:41:07;;;;;;;10.10;9.05;;;;;;;;;;5074762;28;20079;-58
2023/05/21 07:43:34;;;;;;;9.48;8.55;;;;;;;;;;5062314;28;20060;-58
2023/05/21 07:46:00;;;;;;;10.02;9.02;;;;;;;;;;5054290;28;20406;-57
2023/05/21 07:48:27;;;;;;;9.95;8.90;;;;;;;;;;5053914;28;20068;-58
2023/05/21 07:50:55;;;;;;;10.20;9.20;;;;;;;;;;5053629;28;20068;-58
2023/05/21 07:53:22;;;;;;;10.00;9.00;;;;;;;;;;5054484;28;20075;-58
2023/05/21 07:55:49;;;;;;;9.30;8.40;;;;;;;;;;5070477;28;20053;-58
2023/05/21 07:58:17;;;;;;;11.73;9.82;;;;;;;;;;5060784;28;20049;-60
2023/05/21 08:00:45;;;;;;;10.15;9.00;;;;;;;;;;5057484;28;20060;-60
2023/05/21 08:03:14;;;;;;;10.50;9.43;;;;;;;;;;5054490;28;20492;-60
2023/05/21 08:05:41;;;;;;;9.63;8.65;;;;;;;;;;5066284;28;20053;-61
2023/05/21 08:08:08;;;;;;;9.55;8.65;;;;;;;;;;5073956;28;20049;-60
2023/05/21 08:10:35;;;;;;;10.15;9.10;;;;;;;;;;5062336;28;20055;-61
2023/05/21 08:13:02;;;;;;;9.65;8.65;;;;;;;;;;5073400;28;20057;-60
2023/05/21 08:15:30;;;;;;;9.60;8.60;;;;;;;;;;5065194;28;20057;-60
2023/05/21 08:17:57;;;;;;;10.82;9.43;;;;;;;;;;5053450;28;20056;-60
2023/05/21 08:20:25;;;;;;;10.02;9.07;;;;;;;;;;5053958;28;20053;-61
2023/05/21 08:22:52;;;;;;;10.15;9.15;;;;;;;;;;5053073;28;20073;-60
2023/05/21 08:25:19;;;;;;;9.68;8.73;;;;;;;;;;5053845;28;20053;-60
2023/05/21 08:27:45;;;;;;;9.80;8.90;;;;;;;;;;5052873;28;20049;-60
2023/05/21 08:30:13;;;;;;;8.85;8.05;;;;;;;;;;5060705;28;20052;-61
2023/05/21 08:32:41;;;;;;;9.60;8.35;;;;;;;;;;5052971;28;20060;-60
2023/05/21 08:35:08;;;;;;;9.30;8.40;;;;;;;;;;5054429;28;20462;-60
2023/05/21 08:37:35;;;;;;;9.63;8.55;;;;;;;;;;5073416;28;20053;-60
2023/05/21 08:40:03;;;;;;;8.20;7.40;;;;;;;;;;5067008;28;20049;-61
2023/05/21 08:42:34;;;;;;;9.70;8.80;;;;;;;;;;5053841;28;20056;-61
2023/05/21 08:45:01;;;;;;;9.00;8.18;;;;;;;;;;5052798;28;20056;-60
2023/05/21 08:47:32;;;;;;;8.38;7.53;;;;;;;;;;5052152;28;20049;-61
2023/05/21 08:50:00;;;;;;;8.88;8.07;;;;;;;;;;5052896;28;20088;-60
2023/05/21 08:52:27;;;;;;;9.20;8.40;;;;;;;;;;5053135;28;20053;-61
2023/05/21 08:54:54;;;;;;;9.13;8.23;;;;;;;;;;5052699;28;20149;-60
2023/05/21 08:57:22;;;;;;;8.82;8.02;;;;;;;;;;5052704;28;20057;-60
2023/05/21 08:59:49;;;;;;;9.35;8.43;;;;;;;;;;5065182;28;20052;-60
2023/05/21 09:02:17;;;;;;;9.30;8.50;;;;;;;;;;5057672;28;20056;-60
2023/05/21 09:04:47;;;;;;;9.82;8.93;;;;;;;;;;5052113;28;20049;-59
2023/05/21 09:07:15;;;;;;;9.93;8.73;;;;;;;;;;5067734;28;20063;-60
2023/05/21 09:09:47;;;;;;;10.18;9.18;;;;;;;;;;5067158;28;20517;-60
2023/05/21 09:12:14;;;;;;;9.90;8.95;;;;;;;;;;5057492;28;20695;-60
2023/05/21 09:14:40;;;;;;;9.45;8.65;;;;;;;;;;5070745;28;20078;-61
2023/05/21 09:17:10;;;;;;;10.02;9.15;;;;;;;;;;5064748;28;20406;-61
2023/05/21 09:19:37;;;;;;;9.40;8.60;;;;;;;;;;5052403;28;20052;-60
2023/05/21 09:22:04;;;;;;;9.98;8.98;;;;;;;;;;5059292;28;20055;-60
2023/05/21 09:24:32;;;;;;;10.00;9.10;;;;;;;;;;5071696;28;20497;-61
2023/05/21 09:26:59;;;;;;;9.88;8.98;;;;;;;;;;5072913;28;20060;-59
2023/05/21 09:29:26;;;;;;;10.82;9.82;;;;;;;;;;5060631;28;20409;-57
2023/05/21 09:31:53;;;;;;;11.07;9.98;;;;;;;;;;5070067;28;20049;-57
2023/05/21 09:34:20;;;;;;;11.48;9.90;;;;;;;;;;5059343;28;20075;-58
2023/05/21 09:36:48;;;;;;;10.05;9.07;;;;;;;;;;5061259;28;20053;-57
2023/05/21 09:39:27;;;;;;;10.23;9.23;;;;;;;;;;5061461;28;20055;-59
2023/05/21 09:41:57;;;;;;;10.32;9.23;;;;;;;;;;5072398;28;20064;-58
2023/05/21 09:44:24;;;;;;;11.15;10.15;;;;;;;;;;5056532;28;20064;-58
2023/05/21 09:46:57;;;;;;;10.73;9.55;;;;;;;;;;5051468;28;20063;-58
2023/05/21 09:49:25;;;;;;;10.43;9.32;;;;;;;;;;5067177;28;20059;-58
2023/05/21 09:51:54;;;;;;;10.68;9.68;;;;;;;;;;5072276;28;20049;-58
2023/05/21 09:54:22;;;;;;;10.27;9.38;;;;;;;;;;5070806;28;20063;-58
2023/05/21 09:56:50;;;;;;;10.97;9.87;;;;;;;;;;5071451;28;20056;-58
2023/05/21 09:59:19;;;;;;;10.90;9.97;;;;;;;;;;5072435;28;20056;-58
2023/05/21 10:01:46;;;;;;;12.15;11.00;;;;;;;;;;5056574;28;20528;-58
2023/05/21 10:04:13;;;;;;;12.35;10.40;;;;;;;;;;5058023;28;20068;-58
2023/05/21 10:06:42;;;;;;;12.35;11.20;;;;;;;;;;5056600;28;20051;-58
2023/05/21 10:09:10;;;;;;;12.15;10.95;;;;;;;;;;5069784;28;20041;-58
2023/05/21 10:11:37;;;;;;;11.57;10.52;;;;;;;;;;5051703;28;20053;-60
2023/05/21 10:14:06;;;;;;;12.15;10.77;;;;;;;;;;5051220;28;20057;-60
2023/05/21 10:16:34;;;;;;;11.43;10.32;;;;;;;;;;5053822;28;20060;-60
2023/05/21 10:19:01;;;;;;;11.27;10.13;;;;;;;;;;5062464;28;20398;-60
2023/05/21 10:21:28;;;;;;;11.05;9.98;;;;;;;;;;5066700;28;20059;-60
2023/05/21 10:23:57;;;;;;;11.55;10.43;;;;;;;;;;5072355;28;20059;-60
2023/05/21 10:26:25;;;;;;;11.52;10.40;;;;;;;;;;5060280;28;20057;-60
2023/05/21 10:28:54;;;;;;;12.23;11.02;;;;;;;;;;5055384;28;20474;-60
2023/05/21 10:31:22;;;;;;;12.13;10.65;;;;;;;;;;5054452;28;20053;-60
2023/05/21 10:33:50;;;;;;;11.73;10.63;;;;;;;;;;5062145;28;20489;-60
2023/05/21 10:36:17;;;;;;;13.48;12.07;;;;;;;;;;5051908;28;20053;-61
2023/05/21 10:38:44;;;;;;;12.55;11.45;;;;;;;;;;5065395;28;20072;-61
2023/05/21 10:41:12;;;;;;;11.13;10.05;;;;;;;;;;5059634;28;20059;-61
2023/05/21 10:43:43;;;;;;;10.73;9.77;;;;;;;;;;5056304;28;20071;-61
2023/05/21 10:46:34;;;;;;;11.05;9.98;;;;;;;;;;5058637;28;20056;-60
2023/05/21 10:49:12;;;;;;;11.60;10.50;;;;;;;;;;4993597;28;20492;-60
2023/05/21 10:51:45;;;;;;;11.85;10.52;;;;;;;;;;5067574;28;20048;-61
2023/05/21 10:54:30;;;;;;;11.63;10.43;;;;;;;;;;5058650;28;20053;-61
2023/05/21 10:57:01;;;;;;;12.23;11.10;;;;;;;;;;5052370;28;20059;-61
2023/05/21 10:59:36;;;;;;;11.55;10.45;;;;;;;;;;5055988;28;20068;-61
2023/05/21 11:02:03;;;;;;;11.80;10.70;;;;;;;;;;5054013;28;20383;-60
2023/05/21 11:04:33;;;;;;;11.43;10.13;;;;;;;;;;5057795;28;20059;-61
2023/05/21 11:07:00;;;;;;;11.57;10.50;;;;;;;;;;5054339;28;20053;-61
2023/05/21 11:09:27;;;;;;;11.50;10.30;;;;;;;;;;5054037;28;20071;-61
2023/05/21 11:11:57;;;;;;;12.38;11.18;;;;;;;;;;5054995;28;20514;-61
2023/05/21 11:14:30;;;;;;;12.50;11.30;;;;;;;;;;5053457;28;20052;-61
2023/05/21 11:16:57;;;;;;;12.75;11.55;;;;;;;;;;5057267;28;20060;-60
2023/05/21 11:19:33;;;;;;;11.25;10.15;;;;;;;;;;5061263;28;20493;-61
2023/05/21 11:22:00;;;;;;;10.98;9.98;;;;;;;;;;5058178;28;20054;-60
2023/05/21 11:24:28;;;;;;;11.10;10.07;;;;;;;;;;5054350;28;20494;-61
2023/05/21 11:27:05;;;;;;;12.00;10.88;;;;;;;;;;5054176;28;20490;-60
2023/05/21 11:29:42;;;;;;;12.25;10.95;;;;;;;;;;5058480;28;20053;-58
2023/05/21 11:32:10;;;;;;;11.98;10.88;;;;;;;;;;5059482;28;20422;-58
2023/05/21 11:34:39;;;;;;;12.30;11.10;;;;;;;;;;5054763;28;20140;-60
2023/05/21 11:37:26;;;;;;;10.23;9.23;;;;;;;;;;5067588;28;20044;-60
2023/05/21 11:39:53;;;;;;;11.50;10.30;;;;;;;;;;5073073;28;20055;-60
2023/05/21 11:42:33;;;;;;;11.02;10.13;;;;;;;;;;5054699;28;20086;-60
2023/05/21 11:45:00;;;;;;;11.63;10.52;;;;;;;;;;5053165;28;20064;-60
2023/05/21 11:47:28;;;;;;;11.65;10.63;;;;;;;;;;5054246;28;20048;-60
2023/05/21 11:49:56;;;;;;;10.10;9.10;;;;;;;;;;5054406;28;20056;-60
2023/05/21 11:52:24;;;;;;;11.43;10.27;;;;;;;;;;5056983;28;20056;-60
2023/05/21 11:54:53;;;;;;;11.27;10.18;;;;;;;;;;5066321;28;20048;-60
2023/05/21 11:57:21;;;;;;;12.40;11.25;;;;;;;;;;5063447;28;20489;-60
2023/05/21 11:59:48;;;;;;;11.27;10.27;;;;;;;;;;5072449;28;20048;-60
2023/05/21 12:02:16;;;;;;;11.43;10.32;;;;;;;;;;5068696;28;20504;-60
2023/05/21 12:04:43;;;;;;;11.52;9.90;;;;;;;;;;5063686;28;20057;-60
2023/05/21 12:07:12;;;;;;;10.98;9.95;;;;;;;;;;5073923;28;20052;-60
2023/05/21 12:09:39;;;;;;;10.35;9.35;;;;;;;;;;5073336;28;20059;-60
2023/05/21 12:12:06;;;;;;;10.75;9.68;;;;;;;;;;5073768;28;20409;-60
2023/05/21 12:14:33;;;;;;;11.50;10.50;;;;;;;;;;5063855;28;20052;-60
2023/05/21 12:16:59;;;;;;;10.65;9.75;;;;;;;;;;5062842;28;20053;-58
2023/05/21 12:19:26;;;;;;;10.25;9.35;;;;;;;;;;5054552;28;20057;-58
2023/05/21 12:21:53;;;;;;;10.52;9.52;;;;;;;;;;5060693;28;20057;-58
2023/05/21 12:24:22;;;;;;;12.05;10.80;;;;;;;;;;5055974;28;20057;-58
2023/05/21 12:26:50;;;;;;;10.98;9.95;;;;;;;;;;5069479;28;20067;-58
2023/05/21 12:29:19;;;;;;;11.40;10.40;;;;;;;;;;5073393;28;20044;-58
2023/05/21 12:31:49;;;;;;;10.93;9.83;;;;;;;;;;5057499;28;20067;-58
2023/05/21 12:34:17;;;;;;;11.63;10.57;;;;;;;;;;5060069;28;20052;-57
2023/05/21 12:36:47;;;;;;;11.57;10.48;;;;;;;;;;5053487;28;20057;-60
2023/05/21 12:39:14;;;;;;;11.75;10.65;;;;;;;;;;5063469;28;20508;-60
2023/05/21 12:41:43;;;;;;;11.50;9.45;;;;;;;;;;5056285;28;20056;-60
2023/05/21 12:44:11;;;;;;;12.60;11.30;;;;;;;;;;5057085;28;20076;-61
2023/05/21 12:46:37;;;;;;;11.43;10.40;;;;;;;;;;5067357;28;20057;-61
2023/05/21 12:49:04;;;;;;;12.02;11.00;;;;;;;;;;5060094;28;20055;-61
2023/05/21 12:51:37;;;;;;;11.18;10.15;;;;;;;;;;5068807;28;20048;-60
2023/05/21 12:54:04;;;;;;;11.32;10.15;;;;;;;;;;5052579;28;20068;-60
2023/05/21 12:56:45;;;;;;;10.57;9.57;;;;;;;;;;5052436;28;20075;-60
2023/05/21 12:59:13;;;;;;;11.65;10.27;;;;;;;;;;5052283;28;20045;-60
2023/05/21 13:01:40;;;;;;;12.13;10.98;;;;;;;;;;5053192;28;20049;-61
2023/05/21 13:04:07;;;;;;;11.52;10.50;;;;;;;;;;5056296;28;20048;-58
2023/05/21 13:06:41;;;;;;;11.77;10.68;;;;;;;;;;5072736;28;20064;-58
2023/05/21 13:09:08;;;;;;;12.23;11.02;;;;;;;;;;5051774;28;20052;-58
2023/05/21 13:11:35;;;;;;;11.27;10.20;;;;;;;;;;5052799;28;20383;-61
2023/05/21 13:14:03;;;;;;;12.07;10.98;;;;;;;;;;5051692;28;20053;-59
2023/05/21 13:16:30;;;;;;;10.77;9.70;;;;;;;;;;5051565;28;20057;-59
2023/05/21 13:18:56;;;;;;;10.80;9.82;;;;;;;;;;5052168;28;20049;-58
2023/05/21 13:21:23;;;;;;;10.40;9.50;;;;;;;;;;5051308;28;20454;-58
2023/05/21 13:23:50;;;;;;;10.07;9.18;;;;;;;;;;5063141;28;20055;-58
2023/05/21 13:26:17;;;;;;;10.82;9.75;;;;;;;;;;5057033;28;20065;-58
2023/05/21 13:28:44;;;;;;;11.93;10.73;;;;;;;;;;5070440;28;20059;-58
2023/05/21 13:31:14;;;;;;;9.98;8.98;;;;;;;;;;5072414;28;20056;-58
2023/05/21 13:33:41;;;;;;;10.38;9.38;;;;;;;;;;5069321;28;20060;-58
2023/05/21 13:36:08;;;;;;;11.20;10.20;;;;;;;;;;5071109;28;20082;-59
2023/05/21 13:38:34;;;;;;;10.55;9.57;;;;;;;;;;5070776;28;20064;-58
2023/05/21 13:41:01;;;;;;;11.32;10.32;;;;;;;;;;5062124;28;20041;-58
2023/05/21 13:43:28;;;;;;;10.30;9.27;;;;;;;;;;5069163;28;20055;-60
2023/05/21 13:45:55;;;;;;;12.27;9.73;;;;;;;;;;5065247;28;20049;-60
2023/05/21 13:48:23;;;;;;;10.75;9.65;;;;;;;;;;5054108;28;20080;-58
2023/05/21 13:50:50;;;;;;;9.80;8.82;;;;;;;;;;5065151;28;20049;-58
2023/05/21 13:53:17;;;;;;;10.38;9.38;;;;;;;;;;5054585;28;20651;-60
2023/05/21 13:55:43;;;;;;;11.27;10.18;;;;;;;;;;5065957;28;20045;-60
2023/05/21 13:58:10;;;;;;;11.65;10.50;;;;;;;;;;5052617;28;20060;-60
2023/05/21 14:00:39;;;;;;;10.15;9.18;;;;;;;;;;5069871;28;20096;-58
2023/05/21 14:03:08;;;;;;;10.00;9.10;;;;;;;;;;5072088;28;20418;-58
2023/05/21 14:05:36;;;;;;;10.57;9.57;;;;;;;;;;5056027;28;20053;-58
2023/05/21 14:08:03;;;;;;;10.27;8.27;;;;;;;;;;5052287;28;20486;-58
2023/05/21 14:10:30;;;;;;;10.55;9.45;;;;;;;;;;5060962;28;20051;-58
2023/05/21 14:12:57;;;;;;;10.07;9.25;;;;;;;;;;5064782;28;20055;-58
2023/05/21 14:15:24;;;;;;;9.88;8.98;;;;;;;;;;5070018;28;20053;-57
2023/05/21 14:17:52;;;;;;;10.75;8.65;;;;;;;;;;5060621;28;20417;-58
2023/05/21 14:20:19;;;;;;;11.10;10.10;;;;;;;;;;5050479;28;20049;-57
2023/05/21 14:22:47;;;;;;;11.07;10.18;;;;;;;;;;5051430;28;20056;-59
2023/05/21 14:25:14;;;;;;;9.77;8.88;;;;;;;;;;5056353;28;20052;-61
2023/05/21 14:27:40;;;;;;;10.80;9.80;;;;;;;;;;5051803;28;20053;-61
2023/05/21 14:30:08;;;;;;;11.18;10.15;;;;;;;;;;5055586;28;20047;-61